createdAt,value
2018-08-13T15:07:36.270Z,23.19
2018-08-13T15:10:40.185Z,23.17
2018-08-13T15:13:44.263Z,23.18
2018-08-13T15:16:48.522Z,23.18
2018-08-13T15:19:52.778Z,23.19
2018-08-13T15:22:56.937Z,23.18
2018-08-13T15:26:01.241Z,23.17
2018-08-13T15:29:05.317Z,23.17
2018-08-13T15:32:09.318Z,23.17
2018-08-13T15:35:13.341Z,23.16
2018-08-13T15:38:17.737Z,23.17
2018-08-13T15:41:21.927Z,23.16
2018-08-13T15:44:26.009Z,23.15
2018-08-13T15:47:30.574Z,23.14
2018-08-13T15:50:34.587Z,23.13
2018-08-13T15:53:38.623Z,23.12
2018-08-13T15:56:42.632Z,23.10
2018-08-13T15:59:46.855Z,23.10
2018-08-13T16:02:51.073Z,23.10
2018-08-13T16:20:53.438Z,23.06
2018-08-13T16:23:57.450Z,23.05
2018-08-13T16:27:01.428Z,23.04
2018-08-13T16:30:19.206Z,23.02
2018-08-13T16:33:23.215Z,23.00
2018-08-13T16:36:27.507Z,22.98
2018-08-13T16:39:31.513Z,22.95
2018-08-13T16:42:35.460Z,22.92
2018-08-13T16:45:39.462Z,22.88
2018-08-13T16:48:43.701Z,22.86
2018-08-13T16:51:49.086Z,22.82
2018-08-13T16:54:53.069Z,22.79
2018-08-13T16:57:57.484Z,22.76
2018-08-13T17:01:01.943Z,22.72
2018-08-13T17:04:05.990Z,22.71
2018-08-13T17:07:10.301Z,22.67
2018-08-13T17:10:17.896Z,22.62
2018-08-13T17:13:22.251Z,22.58
2018-08-13T17:16:26.134Z,22.55
2018-08-13T17:19:30.026Z,22.53
2018-08-13T17:22:34.141Z,22.49
2018-08-13T17:25:38.096Z,22.45
2018-08-13T17:28:42.399Z,22.42
2018-08-13T17:31:46.737Z,22.38
2018-08-13T17:34:50.721Z,22.35
2018-08-13T17:37:54.637Z,22.31
2018-08-13T17:40:58.526Z,22.28
2018-08-13T17:44:02.410Z,22.25
2018-08-13T17:47:06.326Z,22.22
2018-08-13T17:50:13.259Z,22.19
2018-08-13T17:53:17.461Z,22.17
2018-08-13T17:56:21.604Z,22.14
2018-08-13T17:59:25.663Z,22.10
2018-08-13T18:02:29.955Z,22.08
2018-08-13T18:05:33.945Z,22.05
2018-08-13T18:08:37.844Z,22.01
2018-08-13T18:11:41.766Z,21.99
2018-08-13T18:14:45.677Z,21.96
2018-08-13T18:17:49.585Z,21.91
2018-08-13T18:20:53.739Z,21.89
2018-08-13T18:23:58.017Z,21.85
2018-08-13T18:27:02.017Z,21.82
2018-08-13T18:30:08.660Z,21.78
2018-08-13T18:33:12.723Z,21.74
2018-08-13T18:36:16.677Z,21.72
2018-08-13T18:39:21.801Z,21.67
2018-08-13T18:42:25.742Z,21.62
2018-08-13T18:45:29.906Z,21.58
2018-08-13T18:48:33.898Z,21.55
2018-08-13T18:51:37.975Z,21.51
2018-08-13T18:54:42.253Z,21.47
2018-08-13T18:57:59.542Z,21.44
2018-08-13T19:35:00.448Z,20.99
2018-08-13T19:38:04.782Z,20.96
2018-08-13T19:41:08.840Z,20.93
2018-08-13T19:44:13.141Z,20.89
2018-08-13T19:47:17.565Z,20.85
2018-08-13T19:50:21.719Z,20.82
2018-08-13T19:53:25.928Z,20.78
2018-08-13T19:56:30.099Z,20.76
2018-08-13T19:59:34.131Z,20.71
2018-08-13T20:02:39.049Z,20.67
2018-08-13T20:05:43.282Z,20.64
2018-08-13T20:08:47.775Z,20.62
2018-08-13T20:11:55.062Z,20.57
2018-08-13T20:14:59.322Z,20.52
2018-08-13T20:18:03.401Z,20.50
2018-08-13T20:21:07.951Z,20.46
2018-08-13T20:24:12.017Z,20.44
2018-08-13T20:27:16.570Z,20.41
2018-08-13T20:30:21.996Z,20.37
2018-08-13T20:33:26.084Z,20.36
2018-08-13T20:36:30.418Z,20.32
2018-08-13T20:39:34.450Z,20.28
2018-08-13T20:42:39.930Z,20.27
2018-08-13T20:45:44.430Z,20.24
2018-08-13T20:48:48.671Z,20.22
2018-08-13T20:51:53.404Z,20.20
2018-08-13T20:54:57.522Z,20.17
2018-08-13T20:58:01.659Z,20.12
2018-08-13T21:01:05.815Z,20.12
2018-08-13T21:04:10.512Z,20.10
2018-08-13T21:07:14.871Z,20.06
2018-08-13T21:10:20.838Z,20.05
2018-08-13T21:13:25.035Z,20.00
2018-08-13T21:16:29.277Z,19.95
2018-08-13T21:19:33.866Z,19.92
2018-08-13T21:22:38.468Z,19.89
2018-08-13T21:25:42.964Z,19.85
2018-08-13T21:28:47.382Z,19.84
2018-08-13T21:31:51.552Z,19.78
2018-08-13T21:34:55.728Z,19.74
2018-08-13T21:38:00.246Z,19.72
2018-08-13T21:41:04.503Z,19.68
2018-08-13T21:44:08.652Z,19.63
2018-08-13T21:47:12.751Z,19.61
2018-08-13T21:50:19.028Z,19.56
2018-08-13T21:53:23.377Z,19.50
2018-08-13T21:56:27.441Z,19.46
2018-08-13T21:59:31.459Z,19.43
2018-08-13T22:02:35.703Z,19.40
2018-08-13T22:05:39.922Z,19.34
2018-08-13T22:08:44.009Z,19.31
2018-08-13T22:11:48.022Z,19.25
2018-08-13T22:14:52.332Z,19.19
2018-08-13T22:17:58.223Z,19.14
2018-08-13T22:21:02.632Z,19.12
2018-08-13T22:24:17.979Z,19.04
2018-08-13T22:27:22.039Z,18.97
2018-08-13T22:30:26.446Z,18.93
2018-08-13T22:33:30.510Z,18.91
2018-08-13T22:36:34.570Z,18.86
2018-08-13T22:39:38.682Z,18.82
2018-08-13T22:42:43.659Z,18.78
2018-08-13T22:45:47.696Z,18.71
2018-08-13T22:48:52.182Z,18.67
2018-08-13T22:51:56.332Z,18.66
2018-08-13T22:55:01.078Z,18.64
2018-08-13T22:58:05.327Z,18.57
2018-08-13T23:01:09.465Z,18.49
2018-08-13T23:04:13.525Z,18.45
2018-08-13T23:07:17.736Z,18.43
2018-08-13T23:10:23.079Z,18.39
2018-08-13T23:13:28.118Z,18.38
2018-08-13T23:16:32.256Z,18.37
2018-08-13T23:19:36.626Z,18.33
2018-08-13T23:22:53.834Z,18.33
2018-08-13T23:25:58.238Z,18.31
2018-08-13T23:29:02.282Z,18.28
2018-08-13T23:32:06.509Z,18.29
2018-08-13T23:35:10.702Z,18.35
2018-08-13T23:38:14.885Z,18.36
2018-08-13T23:41:18.986Z,18.37
2018-08-13T23:44:23.160Z,18.37
2018-08-13T23:47:27.318Z,18.36
2018-08-13T23:50:31.554Z,18.35
2018-08-13T23:53:35.489Z,18.34
2018-08-13T23:56:39.492Z,18.34
2018-08-13T23:59:43.521Z,18.35
